Time;durP1;ratioP1;P1;durP2;ratioP2;P2;SDS_P1;SDS_P2;PMS_P1;PMS_P2;Temp;Humidity;BMP_temperature;BMP_pressure;BME280_temperature;BME280_humidity;BME280_pressure;Samples;Min_cycle;Max_cycle;Signal;HPM_P1;HPM_P2
2021/12/02 00:00:15;;;;;;;1.10;0.40;;;9.80;43.40;;;;;;5076796;28;20168;-48
2021/12/02 00:02:42;;;;;;;1.20;0.50;;;9.80;43.50;;;;;;5042830;28;20184;-47
2021/12/02 00:05:10;;;;;;;1.02;0.30;;;9.80;43.90;;;;;;5074989;28;20633;-47
2021/12/02 00:07:38;;;;;;;1.05;0.40;;;9.90;43.60;;;;;;5075826;28;20251;-48
2021/12/02 00:10:06;;;;;;;1.00;0.40;;;9.80;43.80;;;;;;5076758;28;20153;-48
2021/12/02 00:12:33;;;;;;;1.17;0.50;;;9.90;43.50;;;;;;5076688;28;20165;-48
2021/12/02 00:15:06;;;;;;;1.20;0.60;;;9.90;43.50;;;;;;5075815;28;20157;-48
2021/12/02 00:17:38;;;;;;;1.10;0.40;;;9.90;43.60;;;;;;5075624;28;20597;-47
2021/12/02 00:23:28;;;;;;;1.10;0.38;;;9.70;44.30;;;;;;5071200;28;20187;-48
2021/12/02 00:26:01;;;;;;;1.00;0.30;;;9.80;44.10;;;;;;5055485;28;20158;-48
2021/12/02 00:28:30;;;;;;;1.00;0.20;;;9.90;44.00;;;;;;5055424;28;20157;-47
2021/12/02 00:31:00;;;;;;;1.05;0.30;;;10.00;43.90;;;;;;5055454;28;20168;-48
2021/12/02 00:33:31;;;;;;;1.00;0.30;;;9.90;44.10;;;;;;5056079;28;20173;-47
2021/12/02 00:35:58;;;;;;;1.00;0.20;;;9.80;44.20;;;;;;5055286;28;20189;-48
2021/12/02 00:38:26;;;;;;;1.00;0.20;;;9.80;44.20;;;;;;5055166;28;20613;-48
2021/12/02 00:40:54;;;;;;;1.70;0.73;;;9.80;44.50;;;;;;5055808;28;20217;-47
2021/12/02 00:43:22;;;;;;;1.00;0.20;;;9.80;45.20;;;;;;5055092;28;20158;-47
2021/12/02 00:45:49;;;;;;;1.00;0.30;;;9.70;45.50;;;;;;5055812;28;20214;-48
2021/12/02 00:48:17;;;;;;;1.17;0.47;;;9.60;45.50;;;;;;5055967;28;20169;-48
2021/12/02 00:50:50;;;;;;;1.10;0.40;;;9.60;45.80;;;;;;5055718;28;20499;-48
2021/12/02 00:53:23;;;;;;;1.10;0.50;;;9.50;45.90;;;;;;5062088;28;20209;-49
2021/12/02 00:55:51;;;;;;;1.00;0.30;;;9.50;45.90;;;;;;5074787;28;20159;-47
2021/12/02 00:58:20;;;;;;;1.00;0.30;;;9.50;45.60;;;;;;5074646;28;20173;-48
2021/12/02 01:00:52;;;;;;;1.10;0.40;;;9.60;45.40;;;;;;5075637;28;20325;-48
2021/12/02 01:03:21;;;;;;;1.55;0.70;;;9.60;44.70;;;;;;5058384;28;20214;-48
2021/12/02 01:05:48;;;;;;;1.20;0.50;;;9.40;45.00;;;;;;5075379;28;20540;-48
2021/12/02 01:08:17;;;;;;;1.20;0.50;;;9.20;44.30;;;;;;5075479;28;20167;-47
2021/12/02 01:10:45;;;;;;;1.23;0.65;;;9.10;44.60;;;;;;5075386;28;20159;-48
2021/12/02 01:13:13;;;;;;;1.10;0.50;;;9.20;44.20;;;;;;5074375;28;20498;-48
2021/12/02 01:15:40;;;;;;;1.10;0.40;;;9.20;43.70;;;;;;5075352;28;20470;-48
2021/12/02 01:18:07;;;;;;;1.50;0.60;;;9.30;43.70;;;;;;5075208;28;20654;-47
2021/12/02 01:20:38;;;;;;;1.00;0.20;;;9.40;43.00;;;;;;5069142;28;20220;-48
2021/12/02 01:23:07;;;;;;;1.15;0.60;;;9.50;42.70;;;;;;5055221;28;20199;-48
2021/12/02 01:25:36;;;;;;;1.15;0.52;;;9.40;42.30;;;;;;5055069;28;20188;-47
2021/12/02 01:28:05;;;;;;;1.17;0.75;;;9.30;41.90;;;;;;5038036;28;20190;-48
2021/12/02 01:30:33;;;;;;;1.00;0.20;;;9.30;42.10;;;;;;5037867;28;20513;-48
2021/12/02 01:33:04;;;;;;;1.02;0.35;;;9.10;41.20;;;;;;5055083;28;20590;-48
2021/12/02 01:35:33;;;;;;;1.00;0.30;;;9.00;41.80;;;;;;5055085;28;20162;-48
2021/12/02 01:38:01;;;;;;;1.10;0.30;;;9.20;41.00;;;;;;5054105;28;20177;-48
2021/12/02 01:40:28;;;;;;;1.10;0.45;;;9.20;41.00;;;;;;5056010;28;20224;-48
2021/12/02 01:42:58;;;;;;;1.00;0.30;;;9.30;41.20;;;;;;5073968;28;20562;-48
2021/12/02 01:45:28;;;;;;;1.00;0.30;;;9.30;40.90;;;;;;5073941;28;20196;-47
2021/12/02 01:47:57;;;;;;;1.00;0.30;;;9.30;40.90;;;;;;5074875;28;20160;-47
2021/12/02 01:50:26;;;;;;;1.00;0.30;;;9.20;40.70;;;;;;5075047;28;20179;-47
2021/12/02 01:53:00;;;;;;;1.45;0.77;;;9.20;40.70;;;;;;5073964;28;20609;-48
2021/12/02 01:55:29;;;;;;;1.00;0.30;;;9.10;40.50;;;;;;5074833;28;20169;-47
2021/12/02 01:58:01;;;;;;;1.10;0.30;;;9.00;40.90;;;;;;5073778;28;20249;-47
2021/12/02 02:00:41;;;;;;;1.00;0.20;;;9.10;41.10;;;;;;5073974;28;20175;-48
2021/12/02 02:03:15;;;;;;;1.30;0.82;;;9.30;40.70;;;;;;5073860;28;20186;-48
2021/12/02 02:05:43;;;;;;;1.10;0.40;;;9.30;40.40;;;;;;5074735;28;20207;-48
2021/12/02 02:08:18;;;;;;;1.20;0.70;;;9.30;40.70;;;;;;5040788;28;20200;-47
2021/12/02 02:10:46;;;;;;;1.00;0.20;;;9.30;40.90;;;;;;5073789;28;20171;-48
2021/12/02 02:13:16;;;;;;;1.10;0.40;;;9.20;41.00;;;;;;5073886;28;20191;-48
2021/12/02 02:15:46;;;;;;;1.40;0.55;;;9.10;41.00;;;;;;5078350;28;20176;-47
2021/12/02 02:18:31;;;;;;;2.35;0.40;;;9.10;41.60;;;;;;5074268;28;20173;-47
2021/12/02 02:21:02;;;;;;;1.15;0.35;;;9.10;41.10;;;;;;5058578;28;20606;-48
2021/12/02 02:23:38;;;;;;;1.60;1.05;;;8.90;41.30;;;;;;5057621;28;20161;-48
2021/12/02 02:26:08;;;;;;;1.10;0.30;;;8.80;41.70;;;;;;5063170;28;20176;-48
2021/12/02 02:28:35;;;;;;;1.10;0.43;;;9.00;41.50;;;;;;5077580;28;20178;-47
2021/12/02 02:31:03;;;;;;;1.10;0.30;;;9.20;41.00;;;;;;5077487;28;20238;-48
2021/12/02 02:33:37;;;;;;;1.20;0.50;;;9.00;41.30;;;;;;5077454;28;20623;-49
2021/12/02 02:36:07;;;;;;;1.00;0.30;;;8.90;41.70;;;;;;5078412;28;20156;-47
2021/12/02 02:38:35;;;;;;;1.20;0.47;;;8.70;42.30;;;;;;5077571;28;20161;-47
2021/12/02 02:41:05;;;;;;;1.00;0.20;;;8.70;42.00;;;;;;5062138;28;20212;-49
2021/12/02 02:43:34;;;;;;;1.10;0.30;;;8.80;42.00;;;;;;5041075;28;20195;-49
2021/12/02 02:46:01;;;;;;;1.10;0.30;;;8.80;42.10;;;;;;5057952;28;20187;-48
2021/12/02 02:48:30;;;;;;;1.10;0.30;;;8.80;41.80;;;;;;5040746;28;20212;-48
2021/12/02 02:50:58;;;;;;;1.00;0.32;;;8.70;41.90;;;;;;5024381;28;20185;-48
2021/12/02 02:53:26;;;;;;;1.10;0.40;;;8.70;41.90;;;;;;5040741;28;20494;-48
2021/12/02 02:58:52;;;;;;;1.00;0.30;;;8.60;41.70;;;;;;5058141;28;20180;-48
2021/12/02 03:06:56;;;;;;;1.10;0.35;;;8.70;41.00;;;;;;5058153;28;20174;-49
2021/12/02 03:09:39;;;;;;;1.00;0.30;;;8.70;40.80;;;;;;5027743;28;20244;-49
2021/12/02 03:17:31;;;;;;;1.10;0.40;;;8.50;41.50;;;;;;5057672;28;20247;-49
2021/12/02 03:19:58;;;;;;;1.00;0.30;;;8.60;41.30;;;;;;5040195;28;20169;-48
2021/12/02 03:22:27;;;;;;;1.00;0.30;;;8.70;41.10;;;;;;5057519;28;20200;-49
2021/12/02 03:24:54;;;;;;;1.10;0.60;;;8.90;40.80;;;;;;5056975;28;20230;-49
2021/12/02 03:27:22;;;;;;;1.10;0.40;;;9.00;40.40;;;;;;5056532;28;20620;-49
2021/12/02 03:29:49;;;;;;;1.00;0.28;;;9.10;40.40;;;;;;5057332;28;20179;-49
2021/12/02 03:32:17;;;;;;;1.00;0.40;;;9.00;40.40;;;;;;5040125;28;20509;-49
2021/12/02 03:34:45;;;;;;;1.30;0.65;;;9.00;40.10;;;;;;5057340;28;20176;-49
2021/12/02 03:37:12;;;;;;;1.10;0.50;;;9.00;40.20;;;;;;5057193;28;20180;-48
2021/12/02 03:39:40;;;;;;;1.48;0.82;;;9.00;40.10;;;;;;5057107;28;20517;-49
2021/12/02 03:42:08;;;;;;;1.00;0.30;;;9.00;40.00;;;;;;5039752;28;20192;-49
2021/12/02 03:44:35;;;;;;;1.10;0.50;;;9.20;40.10;;;;;;5039858;28;20187;-48
2021/12/02 03:47:03;;;;;;;1.13;0.40;;;9.10;39.80;;;;;;5045979;28;20170;-49
2021/12/02 03:49:31;;;;;;;1.00;0.30;;;8.90;40.00;;;;;;5019921;28;20599;-49
2021/12/02 03:51:58;;;;;;;1.00;0.20;;;8.90;40.40;;;;;;5037074;28;20174;-49
2021/12/02 03:54:26;;;;;;;1.00;0.30;;;9.00;40.40;;;;;;5036969;28;20165;-47
2021/12/02 03:56:53;;;;;;;1.10;0.43;;;8.80;40.20;;;;;;5019692;28;20204;-49
2021/12/02 03:59:20;;;;;;;1.00;0.20;;;8.90;40.20;;;;;;5019565;28;20166;-49
2021/12/02 04:01:48;;;;;;;1.10;0.50;;;8.90;39.90;;;;;;5019768;28;20562;-49
2021/12/02 04:04:16;;;;;;;1.00;0.40;;;8.80;40.30;;;;;;5036710;28;20193;-49
2021/12/02 04:06:43;;;;;;;1.10;0.47;;;8.80;40.40;;;;;;5036707;28;20219;-49
2021/12/02 04:09:18;;;;;;;2.00;0.80;;;8.80;40.20;;;;;;5019435;28;20164;-48
2021/12/02 04:11:57;;;;;;;1.00;0.30;;;8.60;40.60;;;;;;5019173;28;20167;-47
2021/12/02 04:14:33;;;;;;;1.00;0.30;;;8.60;40.50;;;;;;5019083;28;20204;-48
2021/12/02 04:17:03;;;;;;;1.10;0.40;;;8.60;40.90;;;;;;5036449;28;20195;-48
2021/12/02 04:19:30;;;;;;;1.10;0.40;;;8.50;40.90;;;;;;5019325;28;20638;-47
2021/12/02 04:21:58;;;;;;;1.00;0.30;;;8.50;40.90;;;;;;5036518;28;20196;-48
2021/12/02 04:24:27;;;;;;;1.20;0.47;;;8.70;40.60;;;;;;5019138;28;20188;-48
2021/12/02 04:26:55;;;;;;;1.00;0.30;;;8.60;40.00;;;;;;5019178;28;20179;-47
2021/12/02 04:29:24;;;;;;;1.10;0.40;;;8.50;40.30;;;;;;5018770;28;20174;-47
2021/12/02 04:31:52;;;;;;;1.27;0.60;;;8.40;40.40;;;;;;5002940;28;20179;-47
2021/12/02 04:34:19;;;;;;;1.10;0.32;;;8.40;40.80;;;;;;5018941;28;20165;-47
2021/12/02 04:36:47;;;;;;;1.50;0.80;;;8.50;40.60;;;;;;5018562;28;20178;-47
2021/12/02 04:39:14;;;;;;;2.78;0.90;;;8.60;40.60;;;;;;5036736;28;20675;-47
2021/12/02 04:41:42;;;;;;;1.20;0.43;;;8.70;40.40;;;;;;5055270;28;20173;-49
2021/12/02 04:44:09;;;;;;;1.20;0.57;;;8.70;39.70;;;;;;5054940;28;20224;-48
2021/12/02 04:46:36;;;;;;;1.10;0.30;;;8.80;40.00;;;;;;5055039;28;20167;-49
2021/12/02 04:49:03;;;;;;;1.10;0.40;;;8.80;39.80;;;;;;5055841;28;20173;-47
2021/12/02 04:51:31;;;;;;;1.00;0.20;;;8.80;39.90;;;;;;5054924;28;20187;-47
2021/12/02 04:53:58;;;;;;;1.83;0.70;;;8.80;39.80;;;;;;5054862;28;20174;-48
2021/12/02 04:56:25;;;;;;;1.00;0.35;;;8.80;39.80;;;;;;5055691;28;20179;-47
2021/12/02 04:58:53;;;;;;;1.13;0.43;;;8.70;40.10;;;;;;5054793;28;20517;-49
2021/12/02 05:01:20;;;;;;;1.20;0.50;;;8.60;40.00;;;;;;5055572;28;20160;-47
2021/12/02 05:03:47;;;;;;;1.10;0.40;;;8.60;39.90;;;;;;5055511;28;20180;-47
2021/12/02 05:06:15;;;;;;;1.00;0.20;;;8.60;39.80;;;;;;5055417;28;20621;-48
2021/12/02 05:08:43;;;;;;;2.75;0.63;;;8.60;39.70;;;;;;5055574;28;20501;-48
2021/12/02 05:11:11;;;;;;;1.00;0.25;;;8.60;39.60;;;;;;5054571;28;20164;-47
2021/12/02 05:13:38;;;;;;;1.00;0.30;;;8.60;40.00;;;;;;5055468;28;20181;-46
2021/12/02 05:16:06;;;;;;;1.10;0.40;;;8.70;40.10;;;;;;5038205;28;20177;-48
2021/12/02 05:18:33;;;;;;;1.20;0.43;;;8.50;39.80;;;;;;5054357;28;20178;-48
2021/12/02 05:21:00;;;;;;;1.10;0.38;;;8.50;39.60;;;;;;5038019;28;20484;-48
2021/12/02 05:23:29;;;;;;;1.10;0.40;;;8.40;40.40;;;;;;5054284;28;20567;-47
2021/12/02 05:25:56;;;;;;;2.58;1.17;;;8.40;40.20;;;;;;5054355;28;20203;-47
2021/12/02 05:28:24;;;;;;;1.52;1.10;;;8.50;40.10;;;;;;5055118;28;20186;-47
2021/12/02 05:30:51;;;;;;;1.08;0.32;;;8.50;40.00;;;;;;5054152;28;20241;-46
2021/12/02 05:33:18;;;;;;;1.10;0.40;;;8.50;40.00;;;;;;5055097;28;20192;-47
2021/12/02 05:35:45;;;;;;;1.00;0.30;;;8.70;39.40;;;;;;5074098;28;20166;-47
2021/12/02 05:38:13;;;;;;;1.00;0.20;;;8.80;39.20;;;;;;5057526;28;20232;-47
2021/12/02 05:40:40;;;;;;;1.73;1.02;;;8.80;38.80;;;;;;5057342;28;20239;-47
2021/12/02 05:43:08;;;;;;;1.00;0.38;;;8.60;39.50;;;;;;5041155;28;20517;-48
2021/12/02 05:45:35;;;;;;;1.00;0.30;;;8.50;39.40;;;;;;5054958;28;20608;-48
2021/12/02 05:48:03;;;;;;;1.13;0.45;;;8.60;39.80;;;;;;5037299;28;20163;-48
2021/12/02 05:50:30;;;;;;;1.25;0.50;;;8.70;39.70;;;;;;5053461;28;20184;-47
2021/12/02 05:52:58;;;;;;;1.20;0.50;;;8.70;39.50;;;;;;5053696;28;20624;-47
2021/12/02 05:55:25;;;;;;;1.88;0.75;;;8.60;39.50;;;;;;5054677;28;20171;-47
2021/12/02 05:57:52;;;;;;;1.20;0.30;;;8.60;39.50;;;;;;5054639;28;20174;-47
2021/12/02 06:00:21;;;;;;;1.95;0.55;;;8.60;39.50;;;;;;5054716;28;20601;-47
2021/12/02 06:02:48;;;;;;;1.30;0.50;;;8.50;39.50;;;;;;5054557;28;20200;-49
2021/12/02 06:05:20;;;;;;;1.10;0.50;;;8.50;39.70;;;;;;5054540;28;20221;-47
2021/12/02 06:07:53;;;;;;;1.10;0.40;;;8.40;39.80;;;;;;5053871;28;20194;-47
2021/12/02 06:10:21;;;;;;;1.58;0.60;;;8.40;39.60;;;;;;5054523;28;20186;-47
2021/12/02 06:12:49;;;;;;;1.10;0.38;;;8.40;39.60;;;;;;5054551;28;20169;-48
2021/12/02 06:15:16;;;;;;;1.10;0.38;;;8.50;39.50;;;;;;5053676;28;20163;-47
2021/12/02 06:17:45;;;;;;;1.20;0.85;;;8.40;39.50;;;;;;5064202;28;20195;-48
2021/12/02 06:20:14;;;;;;;1.95;0.47;;;8.30;40.00;;;;;;5074515;28;20228;-47
2021/12/02 06:22:42;;;;;;;1.10;0.40;;;8.30;40.00;;;;;;5073666;28;20172;-48
2021/12/02 06:27:44;;;;;;;1.10;0.40;;;8.30;40.30;;;;;;5063691;28;20254;-47
2021/12/02 06:30:16;;;;;;;1.00;0.25;;;8.30;40.30;;;;;;5037121;28;20196;-47
2021/12/02 06:32:44;;;;;;;1.20;0.52;;;8.20;40.30;;;;;;5053545;28;20251;-48
2021/12/02 06:35:12;;;;;;;1.00;0.30;;;8.10;40.40;;;;;;5053447;28;20175;-48
2021/12/02 06:37:39;;;;;;;1.10;0.30;;;8.00;41.00;;;;;;5054231;28;20163;-48
2021/12/02 06:40:08;;;;;;;1.00;0.30;;;8.10;40.90;;;;;;5036694;28;20217;-48
2021/12/02 06:42:36;;;;;;;1.10;0.30;;;8.10;40.80;;;;;;5054212;28;20616;-47
2021/12/02 06:45:04;;;;;;;1.48;0.43;;;8.10;40.80;;;;;;5053078;28;20705;-47
2021/12/02 06:47:35;;;;;;;1.10;0.32;;;8.10;40.80;;;;;;5054084;28;20165;-47
2021/12/02 06:50:08;;;;;;;1.00;0.30;;;8.10;40.40;;;;;;5053481;28;20182;-48
2021/12/02 06:52:36;;;;;;;1.00;0.30;;;8.00;40.20;;;;;;5054038;28;20168;-48
2021/12/02 06:55:05;;;;;;;1.00;0.20;;;8.00;39.90;;;;;;5054050;28;20175;-47
2021/12/02 06:57:32;;;;;;;9.38;0.50;;;8.00;40.30;;;;;;5020421;28;20223;-48
2021/12/02 07:00:07;;;;;;;1.10;0.40;;;8.10;39.90;;;;;;5053852;28;20227;-47
2021/12/02 07:02:35;;;;;;;1.00;0.30;;;8.00;39.90;;;;;;5041277;28;20184;-48
2021/12/02 07:05:04;;;;;;;1.10;0.43;;;8.10;39.90;;;;;;5056877;28;20212;-48
2021/12/02 07:07:36;;;;;;;1.00;0.30;;;8.20;39.60;;;;;;5056858;28;20671;-49
2021/12/02 07:10:18;;;;;;;4.70;0.50;;;8.10;39.70;;;;;;5057629;28;20600;-48
2021/12/02 07:12:47;;;;;;;1.02;0.30;;;8.00;39.90;;;;;;5041177;28;20194;-48
2021/12/02 07:15:17;;;;;;;1.45;0.55;;;8.00;39.80;;;;;;5040440;28;20175;-48
2021/12/02 07:17:49;;;;;;;1.00;0.30;;;8.10;40.10;;;;;;5057451;28;20482;-48
2021/12/02 07:20:17;;;;;;;1.00;0.30;;;8.10;39.70;;;;;;5024614;28;20445;-48
2021/12/02 07:22:45;;;;;;;1.10;0.50;;;8.00;40.10;;;;;;5057561;28;20164;-48
2021/12/02 07:25:13;;;;;;;1.10;0.32;;;8.10;40.00;;;;;;5056469;28;20646;-48
2021/12/02 07:27:41;;;;;;;1.20;0.70;;;8.20;39.90;;;;;;5047414;28;20180;-47
2021/12/02 07:30:09;;;;;;;1.10;0.20;;;8.10;40.00;;;;;;5077329;28;20249;-47
2021/12/02 07:32:41;;;;;;;1.00;0.30;;;8.10;40.10;;;;;;5059938;28;20168;-48
2021/12/02 07:35:16;;;;;;;1.00;0.40;;;8.20;40.00;;;;;;5043371;28;20187;-47
2021/12/02 07:37:46;;;;;;;1.05;0.30;;;8.10;40.10;;;;;;5076381;28;20218;-48
2021/12/02 07:40:15;;;;;;;1.52;0.55;;;8.00;40.10;;;;;;5068345;28;20214;-49
2021/12/02 07:42:44;;;;;;;1.00;0.35;;;8.00;40.40;;;;;;5039730;28;20505;-48
2021/12/02 07:45:12;;;;;;;1.20;0.50;;;8.00;40.40;;;;;;5056918;28;20251;-48
2021/12/02 07:47:41;;;;;;;1.38;0.60;;;8.00;40.50;;;;;;5056978;28;20182;-48
2021/12/02 07:50:11;;;;;;;1.77;0.85;;;8.00;40.60;;;;;;5022909;28;20179;-48
2021/12/02 07:52:49;;;;;;;9.18;0.70;;;8.00;40.50;;;;;;5039492;28;20672;-48
2021/12/02 07:55:17;;;;;;;1.15;0.52;;;8.20;40.20;;;;;;5024453;28;20178;-48
2021/12/02 07:57:45;;;;;;;2.28;0.43;;;8.40;40.60;;;;;;5056751;28;20168;-48
2021/12/02 08:00:15;;;;;;;1.77;1.00;;;8.60;39.70;;;;;;5056794;28;20608;-48
2021/12/02 08:02:47;;;;;;;1.00;0.20;;;8.80;39.30;;;;;;5056852;28;20173;-49
2021/12/02 08:05:16;;;;;;;1.90;0.90;;;9.00;39.00;;;;;;5056602;28;20241;-48
2021/12/02 08:07:45;;;;;;;4.05;0.50;;;9.10;38.80;;;;;;5039223;28;20225;-49
2021/12/02 08:10:14;;;;;;;1.20;0.45;;;9.20;38.90;;;;;;5039303;28;20251;-47
2021/12/02 08:12:47;;;;;;;1.00;0.20;;;9.30;38.50;;;;;;5056046;28;20493;-49
2021/12/02 08:15:21;;;;;;;1.13;0.40;;;9.40;37.70;;;;;;5056540;28;20168;-48
2021/12/02 08:17:49;;;;;;;1.10;0.30;;;9.40;38.00;;;;;;5040149;28;20606;-48
2021/12/02 08:20:16;;;;;;;1.17;0.70;;;9.40;38.00;;;;;;5056399;28;20169;-48
2021/12/02 08:22:44;;;;;;;1.10;0.40;;;9.50;38.10;;;;;;5022695;28;20238;-48
2021/12/02 08:25:13;;;;;;;1.98;0.60;;;9.60;37.30;;;;;;5039015;28;20561;-47
2021/12/02 08:27:41;;;;;;;1.00;0.20;;;9.50;37.40;;;;;;5056168;28;20169;-48
2021/12/02 08:30:11;;;;;;;1.20;0.50;;;9.70;37.30;;;;;;5051149;28;20228;-49
2021/12/02 08:32:45;;;;;;;1.10;0.52;;;10.10;36.00;;;;;;5036317;28;20162;-48
2021/12/02 08:35:18;;;;;;;9.88;1.05;;;10.40;35.70;;;;;;5036117;28;20172;-48
2021/12/02 08:37:48;;;;;;;3.47;0.65;;;10.70;34.20;;;;;;5018688;28;20228;-48
2021/12/02 08:40:28;;;;;;;1.00;0.30;;;10.80;34.50;;;;;;5044759;28;20215;-48
2021/12/02 08:42:56;;;;;;;4.63;1.00;;;10.90;34.00;;;;;;5061878;28;20194;-48
2021/12/02 08:45:25;;;;;;;1.42;0.60;;;10.90;33.30;;;;;;5074952;28;20192;-49
2021/12/02 08:47:53;;;;;;;2.40;0.95;;;10.90;33.90;;;;;;5075747;28;20161;-49
2021/12/02 08:50:22;;;;;;;1.90;0.60;;;11.10;33.70;;;;;;5075027;28;20191;-48
2021/12/02 08:52:52;;;;;;;3.50;0.63;;;11.50;34.10;;;;;;5075807;28;20192;-47
2021/12/02 08:55:21;;;;;;;1.10;0.40;;;12.00;32.70;;;;;;5074834;28;20165;-48
2021/12/02 08:57:52;;;;;;;1.10;0.40;;;12.40;31.60;;;;;;5075703;28;20558;-48
2021/12/02 09:00:22;;;;;;;1.10;0.30;;;12.50;30.70;;;;;;5074792;28;20282;-48
2021/12/02 09:02:49;;;;;;;1.10;0.40;;;12.20;30.30;;;;;;5075544;28;20168;-48
2021/12/02 09:05:17;;;;;;;1.10;0.30;;;11.80;31.20;;;;;;5075517;28;20203;-48
2021/12/02 09:07:44;;;;;;;1.65;0.60;;;11.70;31.20;;;;;;5075431;28;20662;-47
2021/12/02 09:10:12;;;;;;;1.73;0.63;;;11.40;31.80;;;;;;5058118;28;20501;-48
2021/12/02 09:12:42;;;;;;;1.52;0.40;;;11.50;32.90;;;;;;5074489;28;20161;-48
2021/12/02 09:15:10;;;;;;;2.75;0.63;;;11.50;32.30;;;;;;5075262;28;20175;-48
2021/12/02 09:17:37;;;;;;;1.52;0.60;;;11.40;33.10;;;;;;5074421;28;20169;-48
2021/12/02 09:20:07;;;;;;;1.10;0.40;;;11.60;32.70;;;;;;5074552;28;20165;-48
2021/12/02 09:22:35;;;;;;;2.58;1.00;;;11.50;30.70;;;;;;5074285;28;20275;-47
2021/12/02 09:25:06;;;;;;;1.33;0.40;;;11.30;31.00;;;;;;5057892;28;20217;-48
2021/12/02 09:27:34;;;;;;;1.48;0.75;;;11.20;31.80;;;;;;5074324;28;20235;-48
2021/12/02 09:30:01;;;;;;;1.75;0.75;;;11.30;32.00;;;;;;5075075;28;20161;-49
2021/12/02 09:32:29;;;;;;;5.22;1.55;;;11.50;32.20;;;;;;5074200;28;20172;-48
2021/12/02 09:34:57;;;;;;;3.85;1.50;;;11.70;31.90;;;;;;5074122;28;20161;-48
2021/12/02 09:37:24;;;;;;;2.25;1.13;;;12.10;31.50;;;;;;5074424;28;20168;-49
2021/12/02 09:39:52;;;;;;;1.70;0.60;;;12.60;31.30;;;;;;5057030;28;20605;-48
2021/12/02 09:42:21;;;;;;;1.20;0.55;;;13.00;29.50;;;;;;5054124;28;20187;-48
2021/12/02 09:44:52;;;;;;;6.78;0.60;;;13.20;29.30;;;;;;5037601;28;20189;-49
2021/12/02 09:47:21;;;;;;;1.92;0.73;;;13.50;29.50;;;;;;5053868;28;20693;-49
2021/12/02 09:49:49;;;;;;;1.20;0.40;;;13.50;28.60;;;;;;5054774;28;20595;-48
2021/12/02 09:52:18;;;;;;;1.10;0.40;;;12.90;28.30;;;;;;5054175;28;20204;-48
2021/12/02 09:54:55;;;;;;;1.20;0.40;;;12.50;28.10;;;;;;5054672;28;20211;-48
2021/12/02 09:57:28;;;;;;;1.42;0.50;;;11.70;29.00;;;;;;5053770;28;20164;-48
2021/12/02 09:59:57;;;;;;;1.58;0.68;;;11.60;29.90;;;;;;5037890;28;20621;-49
2021/12/02 10:02:25;;;;;;;1.73;0.70;;;11.70;30.20;;;;;;5054608;28;20498;-48
2021/12/02 10:05:02;;;;;;;1.67;0.52;;;11.60;30.10;;;;;;5070424;28;20541;-48
2021/12/02 10:10:17;;;;;;;1.10;0.43;;;11.10;29.90;;;;;;5054630;28;20240;-49
2021/12/02 10:13:14;;;;;;;1.17;0.47;;;10.90;30.10;;;;;;5070131;28;20172;-49
2021/12/02 10:15:51;;;;;;;1.98;0.93;;;11.10;30.60;;;;;;5054339;28;20240;-48
2021/12/02 10:18:21;;;;;;;1.10;0.40;;;11.00;31.00;;;;;;5054347;28;20575;-49
2021/12/02 10:20:51;;;;;;;1.00;0.20;;;11.00;30.00;;;;;;5054166;28;20701;-49
2021/12/02 10:23:26;;;;;;;1.05;0.30;;;11.00;29.50;;;;;;5054403;28;20204;-48
2021/12/02 10:26:05;;;;;;;1.10;0.40;;;11.80;30.30;;;;;;5053545;28;20283;-50
2021/12/02 10:28:41;;;;;;;1.08;0.30;;;12.40;27.90;;;;;;5053640;28;20171;-50
2021/12/02 10:31:10;;;;;;;1.52;0.70;;;12.60;27.10;;;;;;5021897;28;20228;-48
2021/12/02 10:33:50;;;;;;;1.52;0.75;;;13.50;26.80;;;;;;5053497;28;20161;-50
2021/12/02 10:36:29;;;;;;;3.05;0.88;;;14.00;25.90;;;;;;5024525;28;20161;-50
2021/12/02 10:38:59;;;;;;;1.15;0.43;;;14.70;26.00;;;;;;5057509;28;20237;-48
2021/12/02 10:41:29;;;;;;;1.30;0.35;;;14.40;25.00;;;;;;5039659;28;20205;-49
2021/12/02 10:44:09;;;;;;;1.10;0.30;;;13.40;24.60;;;;;;5038053;28;20193;-49
2021/12/02 10:46:42;;;;;;;1.25;0.52;;;12.70;26.50;;;;;;5038209;28;20605;-48
2021/12/02 10:49:16;;;;;;;1.10;0.30;;;12.30;26.00;;;;;;5021170;28;20484;-49
2021/12/02 10:51:46;;;;;;;1.20;0.40;;;11.90;26.50;;;;;;5038201;28;20149;-50
2021/12/02 10:54:16;;;;;;;1.40;0.57;;;11.60;26.60;;;;;;5038467;28;20159;-50
2021/12/02 10:56:47;;;;;;;2.20;0.68;;;11.20;27.30;;;;;;5020803;28;20165;-49
2021/12/02 10:59:46;;;;;;;4.88;1.60;;;10.90;27.70;;;;;;5021178;28;20192;-49
2021/12/02 11:02:22;;;;;;;3.33;1.02;;;10.60;28.40;;;;;;5021080;28;20176;-49
2021/12/02 11:04:59;;;;;;;4.70;1.25;;;10.50;29.20;;;;;;5020596;28;20645;-49
2021/12/02 11:07:35;;;;;;;1.20;0.47;;;10.80;30.20;;;;;;5036798;28;20166;-50
2021/12/02 11:10:11;;;;;;;1.10;0.40;;;11.00;29.20;;;;;;5037807;28;20614;-48
2021/12/02 11:12:48;;;;;;;1.10;0.40;;;11.00;28.80;;;;;;5037809;28;20600;-49
2021/12/02 11:15:17;;;;;;;1.10;0.40;;;10.90;28.20;;;;;;5020877;28;20178;-49
2021/12/02 11:17:50;;;;;;;1.10;0.40;;;10.90;29.10;;;;;;5037698;28;20591;-49
2021/12/02 11:20:33;;;;;;;1.13;0.38;;;10.90;29.60;;;;;;5020421;28;20178;-49
2021/12/02 11:23:07;;;;;;;1.50;0.30;;;10.90;29.00;;;;;;5037636;28;20479;-48
2021/12/02 11:25:39;;;;;;;1.20;0.30;;;10.80;29.60;;;;;;5037386;28;20201;-48
2021/12/02 11:28:09;;;;;;;4.43;0.60;;;10.80;29.50;;;;;;5004426;28;20615;-49
2021/12/02 11:30:37;;;;;;;1.30;0.40;;;10.80;30.00;;;;;;5020273;28;20166;-49
2021/12/02 11:33:06;;;;;;;1.73;0.73;;;10.80;29.50;;;;;;5037242;28;20173;-49
2021/12/02 11:35:38;;;;;;;1.10;0.40;;;10.80;29.10;;;;;;5020058;28;20166;-49
2021/12/02 11:38:18;;;;;;;1.27;0.40;;;10.60;29.50;;;;;;5037439;28;20189;-49
2021/12/02 11:40:50;;;;;;;1.00;0.30;;;10.70;29.70;;;;;;5037015;28;20587;-49
2021/12/02 11:43:21;;;;;;;1.20;0.57;;;10.70;29.80;;;;;;5004145;28;20200;-49
2021/12/02 11:45:51;;;;;;;1.35;0.40;;;11.00;28.90;;;;;;5036944;28;20196;-49
2021/12/02 11:48:20;;;;;;;1.30;0.52;;;11.70;28.70;;;;;;5036085;28;20517;-49
2021/12/02 11:50:50;;;;;;;1.20;0.50;;;12.10;26.60;;;;;;5036980;28;20324;-49
2021/12/02 11:53:24;;;;;;;4.10;0.68;;;12.30;26.50;;;;;;5019694;28;20622;-49
2021/12/02 11:56:02;;;;;;;5.13;0.50;;;12.60;26.60;;;;;;5036945;28;20165;-50
2021/12/02 11:58:30;;;;;;;1.40;0.57;;;12.90;26.70;;;;;;5020749;28;20162;-48
2021/12/02 12:00:58;;;;;;;1.10;0.30;;;13.20;26.90;;;;;;5003489;28;20170;-49
2021/12/02 12:03:37;;;;;;;12.00;0.77;;;13.40;27.00;;;;;;5036791;28;20170;-50
2021/12/02 12:06:11;;;;;;;1.58;0.80;;;13.50;26.70;;;;;;5019400;28;20201;-48
2021/12/02 12:08:47;;;;;;;1.15;0.38;;;13.30;26.20;;;;;;5036669;28;20169;-50
2021/12/02 12:11:22;;;;;;;1.55;0.70;;;13.10;26.20;;;;;;5036654;28;20150;-48
2021/12/02 12:13:55;;;;;;;4.28;1.20;;;12.90;27.00;;;;;;5036509;28;20174;-49
2021/12/02 12:16:29;;;;;;;2.53;0.70;;;12.60;26.60;;;;;;5019072;28;20272;-48
2021/12/02 12:19:16;;;;;;;3.58;0.50;;;13.30;27.30;;;;;;5019702;28;20174;-49
2021/12/02 12:21:51;;;;;;;1.98;1.13;;;14.00;25.90;;;;;;5036576;28;20232;-49
2021/12/02 12:24:19;;;;;;;2.42;0.68;;;14.20;25.10;;;;;;5036296;28;20193;-50
2021/12/02 12:26:47;;;;;;;1.10;0.40;;;14.10;25.30;;;;;;5036451;28;20158;-50
2021/12/02 12:29:18;;;;;;;1.17;0.50;;;14.20;24.10;;;;;;5018800;28;20663;-49
2021/12/02 12:32:01;;;;;;;1.30;0.50;;;14.20;24.70;;;;;;5036269;28;20162;-49
2021/12/02 12:34:35;;;;;;;5.40;0.95;;;14.40;25.30;;;;;;5018746;28;20205;-48
2021/12/02 12:37:30;;;;;;;3.15;0.93;;;14.70;23.60;;;;;;5018770;28;20170;-49
2021/12/02 12:40:08;;;;;;;1.67;0.82;;;14.10;24.40;;;;;;5027266;28;20221;-49
2021/12/02 12:42:37;;;;;;;1.38;0.45;;;14.20;24.80;;;;;;5055976;28;20611;-49
2021/12/02 12:45:37;;;;;;;1.25;0.52;;;13.70;23.40;;;;;;5055910;28;20558;-50
2021/12/02 12:48:07;;;;;;;1.10;0.40;;;13.30;24.30;;;;;;5054521;28;20189;-48
2021/12/02 12:50:43;;;;;;;3.85;0.65;;;12.90;24.50;;;;;;5054883;28;20242;-50
2021/12/02 12:53:16;;;;;;;1.30;0.50;;;12.20;24.90;;;;;;5055876;28;20604;-49
2021/12/02 12:55:52;;;;;;;1.20;0.60;;;11.90;26.60;;;;;;5055887;28;20157;-48
2021/12/02 12:58:22;;;;;;;1.50;0.80;;;11.80;25.70;;;;;;5055273;28;20180;-48
2021/12/02 13:01:03;;;;;;;2.05;0.57;;;11.60;26.00;;;;;;5055552;28;20605;-49
2021/12/02 13:03:44;;;;;;;1.20;0.70;;;11.50;27.20;;;;;;5056526;28;20180;-49
2021/12/02 13:06:20;;;;;;;2.65;1.02;;;11.60;27.20;;;;;;5074646;28;20183;-49
2021/12/02 13:09:02;;;;;;;1.35;0.70;;;11.50;27.70;;;;;;5058691;28;20168;-49
2021/12/02 13:11:33;;;;;;;1.50;0.55;;;11.50;27.60;;;;;;5074607;28;20651;-48
2021/12/02 13:14:03;;;;;;;1.45;0.57;;;11.50;27.60;;;;;;5075415;28;20157;-50
2021/12/02 13:16:36;;;;;;;1.30;0.60;;;11.40;27.90;;;;;;5074412;28;20199;-48
2021/12/02 13:19:15;;;;;;;1.55;1.10;;;11.40;27.90;;;;;;5075265;28;20219;-48
2021/12/02 13:21:45;;;;;;;1.10;0.47;;;11.30;27.80;;;;;;5075201;28;20247;-49
2021/12/02 13:24:18;;;;;;;1.20;0.40;;;11.10;28.00;;;;;;5075090;28;20624;-49
2021/12/02 13:27:00;;;;;;;1.02;0.30;;;11.00;27.80;;;;;;5074464;28;20175;-49
2021/12/02 13:29:30;;;;;;;1.88;1.75;;;10.90;28.00;;;;;;5074335;28;20197;-49
2021/12/02 13:32:01;;;;;;;1.15;0.45;;;10.80;28.30;;;;;;5074199;28;20161;-49